Terminal Aerodrome Forecast
Issued by NWS

Home | Current Version | Previous Version | Text Only | Print | Product List | Glossary Off
Versions: 1 2 3 4 5 6 7 8 9 10 11 12 13 14 15 16 17 18 19

283
FTUS43 KABR 061731
TAFPIR
TAF
KPIR 061731Z 0618/0718 24015G18KT P6SM SKC
     FM070000 29021G28KT P6SM BKN250
     FM071200 30024G32KT P6SM OVC100
     FM071700 31030G38KT P6SM OVC050=

USA.gov is the U.S. government's official web portal to all federal, state and local government web resources and services.